createdAt,value
2017-08-18T00:00:33.597Z,70.70
2017-08-18T00:03:01.082Z,70.90
2017-08-18T00:05:28.566Z,70.70
2017-08-18T00:07:56.050Z,70.70
2017-08-18T00:10:24.281Z,70.50
2017-08-18T00:12:51.750Z,70.70
2017-08-18T00:15:19.246Z,70.70
2017-08-18T00:17:47.477Z,71.40
2017-08-18T00:20:14.934Z,70.60
2017-08-18T00:22:42.426Z,70.60
2017-08-18T00:25:09.879Z,70.50
2017-08-18T00:27:37.326Z,70.50
2017-08-18T00:30:04.799Z,70.50
2017-08-18T00:32:32.286Z,70.30
2017-08-18T00:34:59.733Z,70.20
2017-08-18T00:37:27.953Z,70.20
2017-08-18T00:39:55.430Z,70.20
2017-08-18T00:42:22.886Z,70.30
2017-08-18T00:44:50.375Z,70.30
2017-08-18T00:47:17.831Z,70.30
2017-08-18T00:49:45.306Z,70.40
2017-08-18T00:52:12.798Z,70.60
2017-08-18T00:54:40.255Z,70.70
2017-08-18T00:57:07.733Z,70.70
2017-08-18T00:59:35.206Z,70.70
2017-08-18T01:02:02.686Z,70.70
2017-08-18T01:04:30.142Z,70.80
2017-08-18T01:06:57.629Z,70.90
2017-08-18T01:09:25.085Z,71.00
2017-08-18T01:11:52.553Z,71.00
2017-08-18T01:14:20.038Z,71.10
2017-08-18T01:16:47.498Z,71.20
2017-08-18T01:19:14.990Z,71.20
2017-08-18T01:21:42.478Z,71.30
2017-08-18T01:24:09.966Z,71.30
2017-08-18T01:26:37.422Z,71.10
2017-08-18T01:29:04.917Z,71.10
2017-08-18T01:31:32.401Z,71.20
2017-08-18T01:33:59.869Z,71.10
2017-08-18T01:36:27.376Z,71.00
2017-08-18T01:38:54.839Z,71.00
2017-08-18T01:41:22.336Z,71.00
2017-08-18T01:43:49.798Z,70.80
2017-08-18T01:46:17.265Z,70.70
2017-08-18T01:48:44.761Z,70.60
2017-08-18T01:51:12.213Z,70.50
2017-08-18T01:53:39.686Z,70.30
2017-08-18T01:56:07.220Z,70.10
2017-08-18T01:58:34.691Z,70.00
2017-08-18T02:01:02.150Z,69.70
2017-08-18T02:03:29.646Z,69.60
2017-08-18T02:05:58.821Z,69.70
2017-08-18T02:08:26.286Z,69.60
2017-08-18T02:10:53.766Z,69.40
2017-08-18T02:13:21.215Z,69.20
2017-08-18T02:15:48.698Z,69.30
2017-08-18T02:18:16.166Z,69.20
2017-08-18T02:20:43.641Z,69.00
2017-08-18T02:23:11.090Z,69.10
2017-08-18T02:25:38.629Z,69.10
2017-08-18T02:28:06.083Z,69.20
2017-08-18T02:30:34.325Z,69.10
2017-08-18T02:33:01.778Z,69.10
2017-08-18T02:35:29.273Z,69.10
2017-08-18T02:37:57.498Z,69.00
2017-08-18T02:40:24.981Z,69.00
2017-08-18T02:42:52.438Z,68.80
2017-08-18T02:45:19.909Z,68.90
2017-08-18T02:47:48.165Z,69.00
2017-08-18T02:50:15.641Z,68.60
2017-08-18T02:52:43.094Z,68.40
2017-08-18T02:55:10.545Z,68.30
2017-08-18T02:57:38.022Z,68.30
2017-08-18T03:00:06.238Z,67.90
2017-08-18T03:02:33.713Z,67.90
2017-08-18T03:05:01.175Z,67.50
2017-08-18T03:07:28.654Z,67.40
2017-08-18T03:09:56.208Z,67.50
2017-08-18T03:12:23.667Z,67.40
2017-08-18T03:14:51.123Z,67.30
2017-08-18T03:17:18.610Z,67.30
2017-08-18T03:19:46.070Z,67.20
2017-08-18T03:22:13.535Z,67.10
2017-08-18T03:24:41.033Z,67.20
2017-08-18T03:27:08.501Z,67.10
2017-08-18T03:29:35.957Z,67.10
2017-08-18T03:32:03.436Z,67.20
2017-08-18T03:34:30.890Z,67.20
2017-08-18T03:36:58.386Z,68.00
2017-08-18T03:39:26.604Z,67.00
2017-08-18T03:41:54.061Z,67.00
2017-08-18T03:44:21.546Z,66.90
2017-08-18T03:46:49.042Z,67.00
2017-08-18T03:49:16.573Z,67.00
2017-08-18T03:51:44.033Z,67.10
2017-08-18T03:54:11.518Z,67.80
2017-08-18T03:56:38.989Z,66.90
2017-08-18T03:59:06.440Z,67.00
2017-08-18T04:01:33.920Z,67.10
2017-08-18T04:04:01.381Z,67.10
2017-08-18T04:06:28.898Z,67.10
2017-08-18T04:08:56.373Z,67.00
2017-08-18T04:11:23.834Z,67.10
2017-08-18T04:13:51.317Z,67.00
2017-08-18T04:16:18.810Z,67.00
2017-08-18T04:18:46.261Z,67.00
2017-08-18T04:21:13.721Z,67.00
2017-08-18T04:23:41.201Z,67.00
2017-08-18T04:26:08.667Z,66.90
2017-08-18T04:28:36.121Z,66.90
2017-08-18T04:31:03.622Z,66.90
2017-08-18T04:33:31.073Z,66.90
2017-08-18T04:35:59.450Z,67.00
2017-08-18T04:38:26.938Z,67.10
2017-08-18T04:40:54.394Z,67.10
2017-08-18T04:43:21.853Z,67.10
2017-08-18T04:45:49.359Z,67.20
2017-08-18T04:48:16.824Z,67.20
2017-08-18T04:50:44.290Z,67.30
2017-08-18T04:53:11.767Z,67.30
2017-08-18T04:55:39.228Z,67.40
2017-08-18T04:58:06.697Z,67.40
2017-08-18T05:00:34.177Z,67.30
2017-08-18T05:03:01.686Z,67.40
2017-08-18T05:05:29.140Z,67.30
2017-08-18T05:07:56.602Z,67.30
2017-08-18T05:10:24.135Z,68.10
2017-08-18T05:12:51.589Z,67.30
2017-08-18T05:15:19.066Z,67.20
2017-08-18T05:17:46.574Z,67.20
2017-08-18T05:20:14.022Z,67.20
2017-08-18T05:22:41.482Z,67.00
2017-08-18T05:25:08.962Z,67.00
2017-08-18T05:27:36.436Z,66.90
2017-08-18T05:30:03.926Z,66.80
2017-08-18T05:32:31.394Z,66.80
2017-08-18T05:34:58.861Z,66.90
2017-08-18T05:37:26.338Z,66.80
2017-08-18T05:39:54.498Z,66.80
2017-08-18T05:42:23.095Z,66.70
2017-08-18T05:44:51.753Z,66.80
2017-08-18T05:47:21.620Z,66.90
2017-08-18T05:49:49.121Z,66.80
2017-08-18T05:52:16.598Z,66.80
2017-08-18T05:54:44.071Z,66.80
2017-08-18T05:57:11.529Z,66.80
2017-08-18T05:59:39.007Z,66.70
2017-08-18T06:02:06.478Z,66.60
2017-08-18T06:04:33.937Z,66.50
2017-08-18T06:07:01.414Z,66.50
2017-08-18T06:09:28.884Z,66.40
2017-08-18T06:11:56.380Z,66.40
2017-08-18T06:14:23.841Z,66.30
2017-08-18T06:16:51.297Z,66.20
2017-08-18T06:19:18.792Z,66.00
2017-08-18T06:21:46.255Z,65.90
2017-08-18T06:24:13.777Z,65.80
2017-08-18T06:26:41.230Z,65.80
2017-08-18T06:29:08.687Z,65.70
2017-08-18T06:31:36.161Z,65.90
2017-08-18T06:34:03.610Z,65.80
2017-08-18T06:36:31.091Z,65.70
2017-08-18T06:38:58.547Z,65.70
2017-08-18T06:41:26.019Z,66.50
2017-08-18T06:43:53.539Z,65.70
2017-08-18T06:46:20.989Z,65.50
2017-08-18T06:48:48.445Z,65.60
2017-08-18T06:51:15.946Z,65.40
2017-08-18T06:53:43.409Z,65.40
2017-08-18T06:56:10.878Z,65.30
2017-08-18T06:58:38.349Z,65.00
2017-08-18T07:01:05.830Z,64.90
2017-08-18T07:03:33.280Z,65.10
2017-08-18T07:06:00.774Z,65.00
2017-08-18T07:08:28.222Z,65.10
2017-08-18T07:10:55.689Z,65.00
2017-08-18T07:13:23.170Z,64.80
2017-08-18T07:15:50.653Z,64.80
2017-08-18T07:18:18.130Z,64.90
2017-08-18T07:20:45.597Z,64.80
2017-08-18T07:23:13.075Z,64.70
2017-08-18T07:25:40.526Z,64.60
2017-08-18T07:28:08.015Z,64.50
2017-08-18T07:30:35.490Z,64.50
2017-08-18T07:33:03.713Z,64.70
2017-08-18T07:35:31.240Z,64.70
2017-08-18T07:37:58.699Z,64.90
2017-08-18T07:40:26.151Z,64.90
2017-08-18T07:42:53.644Z,65.00
2017-08-18T07:45:21.096Z,65.00
2017-08-18T07:47:48.570Z,65.00
2017-08-18T07:50:16.085Z,65.00
2017-08-18T07:52:43.557Z,65.00
2017-08-18T07:55:11.021Z,64.90
2017-08-18T07:57:38.501Z,64.80
2017-08-18T08:00:05.957Z,64.90
2017-08-18T08:02:33.415Z,65.00
2017-08-18T08:05:00.885Z,65.00
2017-08-18T08:07:28.345Z,64.90
2017-08-18T08:09:55.822Z,65.00
2017-08-18T08:12:24.054Z,64.80
2017-08-18T08:14:51.544Z,64.80
2017-08-18T08:17:19.001Z,64.50
2017-08-18T08:19:46.507Z,64.10
2017-08-18T08:22:13.959Z,63.80
2017-08-18T08:24:41.415Z,62.90
2017-08-18T08:27:08.885Z,62.60
2017-08-18T08:29:36.347Z,62.60
2017-08-18T08:32:03.838Z,62.50
2017-08-18T08:34:31.327Z,62.20
2017-08-18T08:36:58.777Z,62.00
2017-08-18T08:39:26.257Z,61.70
2017-08-18T08:41:53.721Z,61.50
2017-08-18T08:44:21.218Z,61.00
2017-08-18T08:46:48.679Z,61.00
2017-08-18T08:49:16.137Z,61.10
2017-08-18T08:51:43.617Z,60.80
2017-08-18T08:54:11.072Z,60.30
2017-08-18T08:56:38.537Z,59.50
2017-08-18T08:59:06.014Z,59.00
2017-08-18T09:01:33.507Z,58.50
2017-08-18T09:04:00.966Z,57.60
2017-08-18T09:06:28.423Z,57.40
2017-08-18T09:08:55.921Z,57.10
2017-08-18T09:11:23.379Z,57.50
2017-08-18T09:13:50.838Z,57.60
2017-08-18T09:16:18.337Z,57.90
2017-08-18T09:18:45.789Z,57.80
2017-08-18T09:21:13.267Z,57.70
2017-08-18T09:23:40.749Z,57.70
2017-08-18T09:26:08.217Z,57.80
2017-08-18T09:28:35.702Z,57.50
2017-08-18T09:31:03.205Z,57.40
2017-08-18T09:33:30.701Z,57.50
2017-08-18T09:35:58.162Z,57.80
2017-08-18T09:38:25.621Z,57.70
2017-08-18T09:40:53.093Z,57.50
2017-08-18T09:43:20.586Z,57.70
2017-08-18T09:45:48.049Z,58.00
2017-08-18T09:48:27.378Z,58.40
2017-08-18T09:54:06.410Z,58.20
2017-08-18T09:56:45.532Z,58.20
2017-08-18T09:59:13.790Z,58.40
2017-08-18T10:01:41.265Z,58.40
2017-08-18T10:04:08.749Z,58.30
2017-08-18T10:06:36.236Z,57.90
2017-08-18T10:09:03.741Z,57.80
2017-08-18T10:11:31.235Z,57.70
2017-08-18T10:13:58.695Z,57.50
2017-08-18T10:16:26.185Z,57.60
2017-08-18T10:18:53.637Z,57.90
2017-08-18T10:21:21.110Z,58.10
2017-08-18T10:23:48.607Z,57.90
2017-08-18T10:26:16.835Z,57.70
2017-08-18T10:28:44.328Z,57.70
2017-08-18T10:31:12.598Z,57.40
2017-08-18T10:33:40.058Z,58.10
2017-08-18T10:36:07.536Z,57.10
2017-08-18T10:38:35.001Z,56.50
2017-08-18T10:41:02.506Z,56.20
2017-08-18T10:43:29.953Z,55.60
2017-08-18T10:45:57.411Z,55.40
2017-08-18T10:48:24.886Z,55.20
2017-08-18T10:50:52.360Z,54.60
2017-08-18T10:53:19.809Z,54.20
2017-08-18T10:55:47.290Z,53.60
2017-08-18T10:58:14.755Z,53.50
2017-08-18T11:00:42.226Z,53.70
2017-08-18T11:03:09.683Z,53.50
2017-08-18T11:05:37.168Z,53.30
2017-08-18T11:08:04.617Z,52.90
2017-08-18T11:10:32.079Z,52.50
2017-08-18T11:12:59.554Z,51.80
2017-08-18T11:15:27.018Z,50.90
2017-08-18T11:17:54.533Z,50.40
2017-08-18T11:20:21.983Z,49.90
2017-08-18T11:22:49.446Z,50.00
2017-08-18T11:25:16.917Z,50.10
2017-08-18T11:27:44.362Z,49.90
2017-08-18T11:30:11.833Z,49.40
2017-08-18T11:32:39.286Z,49.30
2017-08-18T11:35:06.786Z,49.40
2017-08-18T11:37:34.254Z,49.30
2017-08-18T11:40:01.709Z,49.40
2017-08-18T11:42:29.197Z,49.50
2017-08-18T11:44:57.423Z,49.60
2017-08-18T11:47:24.882Z,49.50
2017-08-18T11:49:52.354Z,49.60
2017-08-18T11:52:19.829Z,49.80
2017-08-18T11:54:47.289Z,50.10
2017-08-18T11:57:14.771Z,50.40
2017-08-18T11:59:42.989Z,51.40
2017-08-18T12:02:10.469Z,51.40
2017-08-18T12:04:37.933Z,51.90
2017-08-18T12:07:05.390Z,52.30
2017-08-18T12:09:32.898Z,52.70
2017-08-18T12:12:01.084Z,53.20
2017-08-18T12:14:28.539Z,53.20
2017-08-18T12:16:56.021Z,53.10
2017-08-18T12:19:23.477Z,53.00
2017-08-18T12:21:50.961Z,53.00
2017-08-18T12:24:18.413Z,52.90
2017-08-18T12:26:45.867Z,52.80
2017-08-18T12:29:13.345Z,53.00
2017-08-18T12:31:40.827Z,53.40
2017-08-18T12:34:08.285Z,53.50
2017-08-18T12:36:35.773Z,53.60
2017-08-18T12:39:03.228Z,53.80
2017-08-18T12:41:30.699Z,54.20
2017-08-18T12:43:58.161Z,53.90
2017-08-18T12:46:25.635Z,54.10
2017-08-18T12:48:53.101Z,54.30
2017-08-18T12:51:20.578Z,54.50
2017-08-18T12:53:48.095Z,54.70
2017-08-18T12:56:15.558Z,55.30
2017-08-18T12:58:43.068Z,55.70
2017-08-18T13:01:10.566Z,56.40
2017-08-18T13:03:38.013Z,57.20
2017-08-18T13:06:05.465Z,57.60
2017-08-18T13:08:32.937Z,57.40
2017-08-18T13:11:00.419Z,57.40
2017-08-18T13:13:27.916Z,57.70
2017-08-18T13:15:55.395Z,58.10
2017-08-18T13:18:22.850Z,58.20
2017-08-18T13:20:50.341Z,57.80
2017-08-18T13:23:17.806Z,58.10
2017-08-18T13:25:45.250Z,58.30
2017-08-18T13:28:12.766Z,58.60
2017-08-18T13:30:40.218Z,59.00
2017-08-18T13:33:07.662Z,59.30
2017-08-18T13:35:35.148Z,59.50
2017-08-18T13:38:02.602Z,59.50
2017-08-18T13:40:30.063Z,59.50
2017-08-18T13:42:57.541Z,59.40
2017-08-18T13:45:25.035Z,59.60
2017-08-18T13:47:52.487Z,59.80
2017-08-18T13:50:19.981Z,59.90
2017-08-18T13:52:48.213Z,59.60
2017-08-18T13:55:15.672Z,59.60
2017-08-18T13:57:43.141Z,59.50
2017-08-18T14:00:10.617Z,59.50
2017-08-18T14:02:38.135Z,59.50
2017-08-18T14:05:05.587Z,59.70
2017-08-18T14:07:33.032Z,59.70
2017-08-18T14:10:00.518Z,59.80
2017-08-18T14:12:27.986Z,60.00
2017-08-18T14:14:55.456Z,60.20
2017-08-18T14:17:25.054Z,60.50
2017-08-18T14:19:54.707Z,60.90
2017-08-18T14:22:24.328Z,60.50
2017-08-18T14:24:59.458Z,60.10
2017-08-18T14:27:35.011Z,59.70
2017-08-18T14:30:03.544Z,60.60
2017-08-18T14:32:32.478Z,60.00
2017-08-18T14:34:59.986Z,59.90
2017-08-18T14:37:27.453Z,59.70
2017-08-18T14:39:54.936Z,59.70
2017-08-18T14:42:22.446Z,59.60
2017-08-18T14:44:50.408Z,59.60
2017-08-18T14:47:18.533Z,59.50
2017-08-18T14:49:46.313Z,59.40
2017-08-18T14:52:13.885Z,59.30
2017-08-18T14:54:41.518Z,58.90
2017-08-18T14:57:09.103Z,58.70
2017-08-18T14:59:36.739Z,58.20
2017-08-18T15:02:04.347Z,58.20
2017-08-18T15:04:31.961Z,57.90
2017-08-18T15:07:00.389Z,57.90
2017-08-18T15:09:28.009Z,57.40
2017-08-18T15:11:55.681Z,57.20
2017-08-18T15:14:23.299Z,56.90
2017-08-18T15:16:52.916Z,57.20
2017-08-18T15:19:20.648Z,56.90
2017-08-18T15:21:48.896Z,56.40
2017-08-18T15:24:16.441Z,56.70
2017-08-18T15:26:45.044Z,56.50
2017-08-18T15:29:12.637Z,56.30
2017-08-18T15:31:40.778Z,56.10
2017-08-18T15:34:08.708Z,55.50
2017-08-18T15:36:36.222Z,54.80
2017-08-18T15:39:03.721Z,54.00
2017-08-18T15:41:31.332Z,53.30
2017-08-18T15:43:58.964Z,52.90
2017-08-18T15:46:27.390Z,52.10
2017-08-18T15:48:54.878Z,52.10
2017-08-18T15:51:22.488Z,51.50
2017-08-18T15:53:50.197Z,51.50
2017-08-18T15:56:17.879Z,51.50
2017-08-18T15:58:45.836Z,50.90
2017-08-18T16:01:13.592Z,49.90
2017-08-18T16:03:41.239Z,48.90
2017-08-18T16:06:08.895Z,48.60
2017-08-18T16:08:37.431Z,47.20
2017-08-18T16:11:05.043Z,45.40
2017-08-18T16:13:32.784Z,43.40
2017-08-18T16:16:00.407Z,42.90
2017-08-18T16:18:28.854Z,42.10
2017-08-18T16:20:56.338Z,42.00
2017-08-18T16:23:24.237Z,42.20
2017-08-18T16:25:51.846Z,42.90
2017-08-18T16:28:19.508Z,43.30
2017-08-18T16:30:47.329Z,44.40
2017-08-18T16:33:14.974Z,44.70
2017-08-18T16:35:43.069Z,45.60
2017-08-18T16:38:10.750Z,46.30
2017-08-18T16:40:39.093Z,47.30
2017-08-18T16:43:06.712Z,47.30
2017-08-18T16:45:34.241Z,47.80
2017-08-18T16:48:02.672Z,48.70
2017-08-18T16:50:30.390Z,48.70
2017-08-18T16:52:58.111Z,49.00
2017-08-18T16:55:25.698Z,48.80
2017-08-18T16:57:53.307Z,48.90
2017-08-18T17:00:21.674Z,49.10
2017-08-18T17:02:49.334Z,48.70
2017-08-18T17:05:16.964Z,49.20
2017-08-18T17:07:45.413Z,49.70
2017-08-18T17:10:13.045Z,49.70
2017-08-18T17:12:40.628Z,50.00
2017-08-18T17:15:08.263Z,49.90
2017-08-18T17:17:35.970Z,50.00
2017-08-18T17:20:03.766Z,50.20
2017-08-18T17:22:31.598Z,50.50
2017-08-18T17:24:59.519Z,50.70
2017-08-18T17:27:27.346Z,51.00
2017-08-18T17:29:55.019Z,51.10
2017-08-18T17:32:22.605Z,51.40
2017-08-18T17:34:50.169Z,51.80
2017-08-18T17:37:17.747Z,51.90
2017-08-18T17:39:45.251Z,51.90
2017-08-18T17:42:12.840Z,52.00
2017-08-18T17:44:40.449Z,52.20
2017-08-18T17:47:08.572Z,52.50
2017-08-18T17:49:37.144Z,52.20
2017-08-18T17:55:28.366Z,51.80
2017-08-18T17:57:55.978Z,51.20
2017-08-18T18:00:23.661Z,51.00
2017-08-18T18:02:51.134Z,50.80
2017-08-18T18:05:18.591Z,50.80
2017-08-18T18:07:46.062Z,50.90
2017-08-18T18:10:13.554Z,51.90
2017-08-18T18:12:41.771Z,53.20
2017-08-18T18:15:09.210Z,53.10
2017-08-18T18:17:36.749Z,54.30
2017-08-18T18:20:04.209Z,54.70
2017-08-18T18:22:32.449Z,56.70
2017-08-18T18:24:59.952Z,56.70
2017-08-18T18:27:27.462Z,57.80
2017-08-18T18:29:54.933Z,58.40
2017-08-18T18:32:22.426Z,58.50
2017-08-18T18:34:49.913Z,58.00
2017-08-18T18:37:17.382Z,58.20
2017-08-18T18:39:44.825Z,58.30
2017-08-18T18:42:12.333Z,58.40
2017-08-18T18:44:39.783Z,58.70
2017-08-18T18:47:07.239Z,58.70
2017-08-18T18:49:34.735Z,58.80
2017-08-18T18:52:02.222Z,58.60
2017-08-18T18:54:29.686Z,58.40
2017-08-18T18:56:57.158Z,58.50
2017-08-18T18:59:24.654Z,58.50
2017-08-18T19:01:52.109Z,58.50
2017-08-18T19:04:19.649Z,58.50
2017-08-18T19:06:47.123Z,58.60
2017-08-18T19:09:14.594Z,58.60
2017-08-18T19:11:42.078Z,58.70
2017-08-18T19:14:09.528Z,58.70
2017-08-18T19:16:37.050Z,58.80
2017-08-18T19:19:04.517Z,59.00
2017-08-18T19:21:32.761Z,59.30
2017-08-18T19:24:00.250Z,59.30
2017-08-18T19:26:27.711Z,59.60
2017-08-18T19:28:55.295Z,59.60
2017-08-18T19:31:22.796Z,60.10
2017-08-18T19:33:51.035Z,59.70
2017-08-18T19:36:18.616Z,59.80
2017-08-18T19:38:46.271Z,59.80
2017-08-18T19:41:13.736Z,59.90
2017-08-18T19:43:41.226Z,59.90
2017-08-18T19:46:08.730Z,60.10
2017-08-18T19:48:36.195Z,60.40
2017-08-18T19:51:03.708Z,60.30
2017-08-18T19:53:31.159Z,60.60
2017-08-18T19:55:58.614Z,60.80
2017-08-18T19:58:26.106Z,60.90
2017-08-18T20:00:53.552Z,60.70
2017-08-18T20:03:21.044Z,60.70
2017-08-18T20:05:48.517Z,60.80
2017-08-18T20:08:16.004Z,60.80
2017-08-18T20:10:43.471Z,61.00
2017-08-18T20:13:11.242Z,61.40
2017-08-18T20:15:39.081Z,61.70
2017-08-18T20:18:06.585Z,61.80
2017-08-18T20:20:35.369Z,62.00
2017-08-18T20:23:02.873Z,62.10
2017-08-18T20:25:30.366Z,62.10
2017-08-18T20:28:01.410Z,62.20
2017-08-18T20:30:28.905Z,62.00
2017-08-18T20:32:56.394Z,62.10
2017-08-18T20:35:23.868Z,62.30
2017-08-18T20:37:51.333Z,62.60
2017-08-18T20:40:18.886Z,62.60
2017-08-18T20:42:46.371Z,62.80
2017-08-18T20:45:13.849Z,62.80
2017-08-18T20:47:41.324Z,62.90
2017-08-18T20:50:08.827Z,63.00
2017-08-18T20:52:36.305Z,63.20
2017-08-18T20:55:03.758Z,63.30
2017-08-18T20:57:31.241Z,63.50
2017-08-18T20:59:58.689Z,64.50
2017-08-18T21:02:26.145Z,63.70
2017-08-18T21:04:53.625Z,63.70
2017-08-18T21:07:21.090Z,63.80
2017-08-18T21:09:48.541Z,63.90
2017-08-18T21:12:16.017Z,63.90
2017-08-18T21:14:43.494Z,63.70
2017-08-18T21:17:10.941Z,63.70
2017-08-18T21:19:38.418Z,63.70
2017-08-18T21:22:05.918Z,63.90
2017-08-18T21:24:33.374Z,63.90
2017-08-18T21:27:00.828Z,63.80
2017-08-18T21:29:29.073Z,63.60
2017-08-18T21:31:56.529Z,64.40
2017-08-18T21:34:23.973Z,63.50
2017-08-18T21:36:51.470Z,63.90
2017-08-18T21:39:18.974Z,63.00
2017-08-18T21:41:46.449Z,62.90
2017-08-18T21:44:13.918Z,62.70
2017-08-18T21:46:41.394Z,62.70
2017-08-18T21:49:08.869Z,62.60
2017-08-18T21:51:36.343Z,62.50
2017-08-18T21:54:03.793Z,62.30
2017-08-18T21:56:31.274Z,62.30
2017-08-18T21:58:58.754Z,62.30
2017-08-18T22:01:26.202Z,62.20
2017-08-18T22:03:53.657Z,62.20
2017-08-18T22:06:21.130Z,62.30
2017-08-18T22:08:48.621Z,62.40
2017-08-18T22:11:16.101Z,62.40
2017-08-18T22:13:44.809Z,62.50
2017-08-18T22:16:12.347Z,62.50
2017-08-18T22:18:39.798Z,62.70
2017-08-18T22:21:07.286Z,62.70
2017-08-18T22:23:34.742Z,62.90
2017-08-18T22:26:02.202Z,63.10
2017-08-18T22:28:29.677Z,63.10
2017-08-18T22:30:57.155Z,63.20
2017-08-18T22:33:24.669Z,63.40
2017-08-18T22:35:52.126Z,63.40
2017-08-18T22:38:19.587Z,63.40
2017-08-18T22:40:47.080Z,63.40
2017-08-18T22:43:14.535Z,63.40
2017-08-18T22:45:41.990Z,63.60
2017-08-18T22:48:09.515Z,63.60
2017-08-18T22:50:36.963Z,63.70
2017-08-18T22:53:04.413Z,63.70
2017-08-18T22:55:31.894Z,63.80
2017-08-18T22:57:59.362Z,63.80
2017-08-18T23:00:26.841Z,63.90
2017-08-18T23:02:54.300Z,63.80
2017-08-18T23:05:21.768Z,63.90
2017-08-18T23:07:49.225Z,64.10
2017-08-18T23:10:16.728Z,64.20
2017-08-18T23:12:44.178Z,64.30
2017-08-18T23:15:11.633Z,64.40
2017-08-18T23:17:39.124Z,64.30
2017-08-18T23:20:06.578Z,64.20
2017-08-18T23:22:34.037Z,64.30
2017-08-18T23:25:01.532Z,64.40
2017-08-18T23:27:29.001Z,64.40
2017-08-18T23:29:56.479Z,64.40
2017-08-18T23:32:23.933Z,64.30
2017-08-18T23:34:51.409Z,64.30
2017-08-18T23:37:19.631Z,64.60
2017-08-18T23:39:47.108Z,64.60
2017-08-18T23:42:14.554Z,64.40
2017-08-18T23:44:42.029Z,64.30
2017-08-18T23:47:09.494Z,64.40
2017-08-18T23:49:36.961Z,64.40
2017-08-18T23:52:04.443Z,64.30
2017-08-18T23:54:32.649Z,64.10
2017-08-18T23:57:00.105Z,64.00
2017-08-18T23:59:27.585Z,63.90
